createdAt,value
2018-01-20T00:02:15.773Z,100118.19
2018-01-20T00:04:43.378Z,100118.13
2018-01-20T00:07:10.933Z,100123.94
2018-01-20T00:09:50.219Z,100115.25
2018-01-20T00:12:17.808Z,100112.82
2018-01-20T00:14:45.440Z,100117.98
2018-01-20T00:17:16.016Z,100115.59
2018-01-20T00:19:43.574Z,100105.47
2018-01-20T00:22:27.976Z,100106.04
2018-01-20T00:25:01.119Z,100111.61
2018-01-20T00:27:29.126Z,100117.08
2018-01-20T00:29:56.660Z,100109.88
2018-01-20T00:32:24.254Z,100112.37
2018-01-20T00:34:51.787Z,100107.54
2018-01-20T00:37:19.333Z,100106.03
2018-01-20T00:39:46.923Z,100104.68
2018-01-20T00:42:15.460Z,100101.67
2018-01-20T00:44:43.017Z,100095.61
2018-01-20T00:47:10.580Z,100097.94
2018-01-20T00:49:38.101Z,100098.13
2018-01-20T00:52:05.657Z,100100.49
2018-01-20T00:54:33.176Z,100100.44
2018-01-20T00:57:00.724Z,100102.86
2018-01-20T00:59:28.282Z,100102.64
2018-01-20T01:01:56.027Z,100101.64
2018-01-20T01:04:23.593Z,100110.09
2018-01-20T01:06:51.153Z,100108.78
2018-01-20T01:09:18.745Z,100110.67
2018-01-20T01:11:46.277Z,100105.47
2018-01-20T01:14:13.834Z,100115.98
2018-01-20T01:16:41.572Z,100114.59
2018-01-20T01:19:09.163Z,100108.92
2018-01-20T01:21:36.681Z,100102.98
2018-01-20T01:24:04.212Z,100102.38
2018-01-20T01:26:31.793Z,100102.31
2018-01-20T01:28:59.314Z,100108.44
2018-01-20T01:31:26.861Z,100109.27
2018-01-20T01:33:54.481Z,100099.88
2018-01-20T01:36:22.045Z,100095.38
2018-01-20T01:38:49.614Z,100097.27
2018-01-20T01:41:17.205Z,100095.17
2018-01-20T01:43:44.792Z,100088.02
2018-01-20T01:46:12.412Z,100090.45
2018-01-20T01:48:39.974Z,100095.92
2018-01-20T01:51:07.545Z,100081.42
2018-01-20T01:53:35.190Z,100084.59
2018-01-20T01:56:02.745Z,100091.41
2018-01-20T01:58:30.272Z,100089.56
2018-01-20T02:00:57.827Z,100083.63
2018-01-20T02:03:25.347Z,100086.20
2018-01-20T02:05:52.942Z,100085.66
2018-01-20T02:08:20.506Z,100087.27
2018-01-20T02:10:48.095Z,100081.44
2018-01-20T02:13:15.672Z,100084.60
2018-01-20T02:15:43.268Z,100086.80
2018-01-20T02:18:10.829Z,100082.80
2018-01-20T02:20:38.426Z,100079.57
2018-01-20T02:23:05.991Z,100078.16
2018-01-20T02:25:33.646Z,100077.41
2018-01-20T02:28:01.179Z,100076.42
2018-01-20T02:30:29.033Z,100083.61
2018-01-20T02:32:56.589Z,100074.56
2018-01-20T02:35:24.119Z,100064.43
2018-01-20T02:37:51.738Z,100066.08
2018-01-20T02:40:19.290Z,100073.27
2018-01-20T02:42:46.858Z,100070.56
2018-01-20T02:45:14.445Z,100071.68
2018-01-20T02:47:41.985Z,100076.59
2018-01-20T02:50:09.503Z,100073.20
2018-01-20T02:52:37.082Z,100064.23
2018-01-20T02:55:04.843Z,100066.85
2018-01-20T02:57:32.405Z,100059.55
2018-01-20T03:00:00.023Z,100055.38
2018-01-20T03:02:27.731Z,100053.22
2018-01-20T03:04:55.296Z,100052.22
2018-01-20T03:07:22.990Z,100052.09
2018-01-20T03:09:50.542Z,100051.01
2018-01-20T03:12:18.674Z,100049.44
2018-01-20T03:14:46.204Z,100035.95
2018-01-20T03:17:13.758Z,100032.45
2018-01-20T03:19:41.395Z,100032.27
2018-01-20T03:22:08.959Z,100022.63
2018-01-20T03:24:36.520Z,100031.06
2018-01-20T03:27:04.319Z,100019.48
2018-01-20T03:29:31.910Z,100021.14
2018-01-20T03:31:59.477Z,100006.75
2018-01-20T03:34:27.078Z,100001.55
2018-01-20T03:36:54.600Z,100004.20
2018-01-20T03:39:22.497Z,100001.70
2018-01-20T03:41:50.054Z,100001.12
2018-01-20T03:44:17.841Z,99996.23
2018-01-20T03:46:45.510Z,99999.67
2018-01-20T03:49:13.032Z,99996.23
2018-01-20T03:51:40.867Z,99990.75
2018-01-20T03:54:08.392Z,99987.13
2018-01-20T03:56:35.949Z,99983.27
2018-01-20T03:59:03.594Z,99977.40
2018-01-20T04:01:31.154Z,99975.52
2018-01-20T04:03:58.943Z,99981.38
2018-01-20T04:06:26.522Z,99992.89
2018-01-20T04:08:54.098Z,99985.19
2018-01-20T04:11:21.714Z,99980.17
2018-01-20T04:13:49.266Z,99973.15
2018-01-20T04:16:16.817Z,99974.02
2018-01-20T04:18:44.375Z,99971.95
2018-01-20T04:21:11.910Z,99974.94
2018-01-20T04:23:39.493Z,99966.97
2018-01-20T04:26:07.008Z,99970.30
2018-01-20T04:28:34.564Z,99961.47
2018-01-20T04:31:02.435Z,99971.08
2018-01-20T04:33:30.001Z,99963.79
2018-01-20T04:35:57.570Z,99966.47
2018-01-20T04:38:25.151Z,99967.86
2018-01-20T04:40:52.714Z,99970.37
2018-01-20T04:43:20.311Z,99970.86
2018-01-20T04:45:48.130Z,99974.95
2018-01-20T04:48:15.690Z,99970.62
2018-01-20T04:50:43.277Z,99968.45
2018-01-20T04:53:10.905Z,99964.59
2018-01-20T04:55:38.483Z,99958.34
2018-01-20T04:58:06.039Z,99958.06
2018-01-20T05:00:33.935Z,99953.39
2018-01-20T05:03:01.504Z,99948.80
2018-01-20T05:05:29.153Z,99957.58
2018-01-20T05:07:56.769Z,99950.07
2018-01-20T05:10:24.362Z,99952.50
2018-01-20T05:12:51.932Z,99953.36
2018-01-20T05:15:19.520Z,99952.28
2018-01-20T05:17:47.044Z,99948.74
2018-01-20T05:20:14.634Z,99939.93
2018-01-20T05:22:42.148Z,99949.95
2018-01-20T05:25:09.736Z,99948.01
2018-01-20T05:27:37.264Z,99947.91
2018-01-20T05:30:05.068Z,99949.97
2018-01-20T05:32:32.636Z,99947.00
2018-01-20T05:35:00.202Z,99944.12
2018-01-20T05:37:27.794Z,99940.39
2018-01-20T05:39:55.353Z,99950.05
2018-01-20T05:42:22.937Z,99949.38
2018-01-20T05:44:50.659Z,99942.47
2018-01-20T05:47:18.656Z,99936.81
2018-01-20T05:49:46.223Z,99932.42
2018-01-20T05:52:13.757Z,99932.55
2018-01-20T05:54:41.311Z,99932.06
2018-01-20T05:57:08.914Z,99925.68
2018-01-20T05:59:36.471Z,99928.97
2018-01-20T06:02:04.026Z,99925.82
2018-01-20T06:04:31.610Z,99931.17
2018-01-20T06:06:59.123Z,99928.02
2018-01-20T06:09:26.795Z,99922.94
2018-01-20T06:11:56.985Z,99922.06
2018-01-20T06:14:24.583Z,99920.57
2018-01-20T06:16:52.146Z,99918.65
2018-01-20T06:19:19.715Z,99919.78
2018-01-20T06:21:47.283Z,99925.05
2018-01-20T06:24:15.103Z,99919.86
2018-01-20T06:26:42.694Z,99919.84
2018-01-20T06:29:10.277Z,99916.50
2018-01-20T06:31:37.898Z,99914.78
2018-01-20T06:34:06.152Z,99917.19
2018-01-20T06:36:34.106Z,99906.62
2018-01-20T06:39:01.771Z,99898.66
2018-01-20T06:41:29.333Z,99899.63
2018-01-20T06:43:56.990Z,99894.31
2018-01-20T06:46:24.950Z,99893.83
2018-01-20T06:48:52.523Z,99890.50
2018-01-20T06:51:20.043Z,99890.61
2018-01-20T06:53:47.719Z,99891.83
2018-01-20T06:56:15.253Z,99888.61
2018-01-20T06:58:42.825Z,99890.30
2018-01-20T07:01:10.390Z,99892.22
2018-01-20T07:03:37.978Z,99886.39
2018-01-20T07:06:05.538Z,99884.22
2018-01-20T07:08:33.088Z,99883.21
2018-01-20T07:11:00.633Z,99886.46
2018-01-20T07:13:28.213Z,99876.06
2018-01-20T07:15:55.877Z,99882.87
2018-01-20T07:18:23.657Z,99885.47
2018-01-20T07:20:51.382Z,99885.47
2018-01-20T07:23:18.992Z,99881.64
2018-01-20T07:25:46.511Z,99884.95
2018-01-20T07:28:14.208Z,99883.77
2018-01-20T07:30:41.765Z,99886.52
2018-01-20T07:33:09.328Z,99884.95
2018-01-20T07:35:36.894Z,99890.55
2018-01-20T07:38:04.454Z,99891.18
2018-01-20T07:40:31.999Z,99885.60
2018-01-20T07:42:59.795Z,99889.66
2018-01-20T07:45:27.384Z,99894.57
2018-01-20T07:47:54.909Z,99887.17
2018-01-20T07:50:22.466Z,99882.60
2018-01-20T07:52:50.048Z,99881.47
2018-01-20T07:55:18.092Z,99882.73
2018-01-20T07:57:45.746Z,99885.87
2018-01-20T08:00:13.325Z,99883.30
2018-01-20T08:02:40.906Z,99887.17
2018-01-20T08:05:08.565Z,99888.18
2018-01-20T08:07:36.296Z,99891.92
2018-01-20T08:10:04.016Z,99901.71
2018-01-20T08:12:31.602Z,99902.41
2018-01-20T08:14:59.119Z,99901.67
2018-01-20T08:17:26.720Z,99902.95
2018-01-20T08:19:54.679Z,99894.97
2018-01-20T08:22:23.247Z,99896.31
2018-01-20T08:24:50.818Z,99897.27
2018-01-20T08:27:19.147Z,99894.33
2018-01-20T08:29:46.670Z,99891.91
2018-01-20T08:32:14.433Z,99887.99
2018-01-20T08:34:42.005Z,99890.20
2018-01-20T08:37:09.567Z,99892.07
2018-01-20T08:39:37.154Z,99889.66
2018-01-20T08:42:04.706Z,99894.17
2018-01-20T08:44:32.314Z,99890.44
2018-01-20T08:46:59.900Z,99885.48
2018-01-20T08:49:27.974Z,99892.27
2018-01-20T08:51:55.569Z,99882.15
2018-01-20T08:54:23.196Z,99884.94
2018-01-20T08:56:50.776Z,99884.03
2018-01-20T08:59:18.305Z,99884.02
2018-01-20T09:01:45.898Z,99883.28
2018-01-20T09:04:13.662Z,99888.11
2018-01-20T09:06:41.284Z,99888.14
2018-01-20T09:09:08.912Z,99886.52
2018-01-20T09:11:36.693Z,99882.58
2018-01-20T09:14:04.217Z,99879.38
2018-01-20T09:16:31.865Z,99870.92
2018-01-20T09:18:59.890Z,99873.38
2018-01-20T09:21:27.413Z,99874.16
2018-01-20T09:23:55.237Z,99870.78
2018-01-20T09:26:22.799Z,99866.75
2018-01-20T09:28:50.349Z,99861.75
2018-01-20T09:31:18.002Z,99856.91
2018-01-20T09:33:45.598Z,99851.69
2018-01-20T09:36:13.145Z,99854.80
2018-01-20T09:38:40.980Z,99846.25
2018-01-20T09:41:08.506Z,99845.94
2018-01-20T09:43:36.075Z,99841.73
2018-01-20T09:46:03.719Z,99839.03
2018-01-20T09:48:31.330Z,99834.84
2018-01-20T09:50:58.887Z,99836.07
2018-01-20T09:53:26.698Z,99834.34
2018-01-20T09:55:54.481Z,99837.51
2018-01-20T09:58:22.061Z,99826.98
2018-01-20T10:00:49.678Z,99832.52
2018-01-20T10:03:17.603Z,99832.82
2018-01-20T10:05:45.286Z,99827.91
2018-01-20T10:08:13.078Z,99829.75
2018-01-20T10:10:40.602Z,99821.50
2018-01-20T10:13:08.397Z,99818.20
2018-01-20T10:15:36.282Z,99818.14
2018-01-20T10:18:03.853Z,99820.00
2018-01-20T10:20:31.415Z,99816.67
2018-01-20T10:22:58.987Z,99808.33
2018-01-20T10:25:26.992Z,99801.07
2018-01-20T10:27:55.487Z,99803.37
2018-01-20T10:30:23.421Z,99799.25
2018-01-20T10:32:51.017Z,99797.91
2018-01-20T10:35:19.581Z,99796.17
2018-01-20T10:37:47.267Z,99794.47
2018-01-20T10:40:14.866Z,99785.77
2018-01-20T10:42:42.492Z,99789.27
2018-01-20T10:45:10.003Z,99794.50
2018-01-20T10:47:37.581Z,99796.14
2018-01-20T10:50:05.930Z,99784.86
2018-01-20T10:52:33.574Z,99788.15
2018-01-20T10:55:01.188Z,99789.33
2018-01-20T10:57:28.690Z,99783.85
2018-01-20T10:59:56.604Z,99775.70
2018-01-20T11:02:24.502Z,99773.34
2018-01-20T11:04:52.085Z,99768.12
2018-01-20T11:07:19.590Z,99769.31
2018-01-20T11:09:47.100Z,99761.20
2018-01-20T11:12:15.310Z,99753.19
2018-01-20T11:14:42.859Z,99750.59
2018-01-20T11:17:10.874Z,99744.17
2018-01-20T11:19:38.837Z,99738.13
2018-01-20T11:22:06.398Z,99735.02
2018-01-20T11:24:33.954Z,99730.66
2018-01-20T11:27:02.036Z,99727.13
2018-01-20T11:29:29.629Z,99725.05
2018-01-20T11:31:57.247Z,99714.57
2018-01-20T11:34:24.806Z,99715.49
2018-01-20T11:36:52.449Z,99700.16
2018-01-20T11:39:20.049Z,99698.59
2018-01-20T11:41:47.621Z,99698.07
2018-01-20T11:44:15.229Z,99694.27
2018-01-20T11:46:42.755Z,99687.17
2018-01-20T11:49:10.656Z,99683.52
2018-01-20T11:51:38.257Z,99685.34
2018-01-20T11:54:07.020Z,99672.07
2018-01-20T11:56:34.637Z,99666.19
2018-01-20T11:59:02.223Z,99661.58
2018-01-20T12:01:30.086Z,99653.17
2018-01-20T12:03:57.633Z,99649.39
2018-01-20T12:06:25.283Z,99643.41
2018-01-20T12:08:52.800Z,99644.71
2018-01-20T12:11:20.903Z,99639.52
2018-01-20T12:13:49.166Z,99629.52
2018-01-20T12:16:16.758Z,99635.80
2018-01-20T12:18:44.333Z,99614.44
2018-01-20T12:21:11.950Z,99620.73
2018-01-20T12:23:39.999Z,99611.59
2018-01-20T12:26:08.095Z,99603.22
2018-01-20T12:28:35.713Z,99597.41
2018-01-20T12:31:03.248Z,99594.39
2018-01-20T12:33:31.016Z,99589.58
2018-01-20T12:35:58.603Z,99584.98
2018-01-20T12:38:26.124Z,99585.34
2018-01-20T12:40:54.059Z,99586.36
2018-01-20T12:43:21.628Z,99581.52
2018-01-20T12:45:49.209Z,99571.88
2018-01-20T12:48:16.834Z,99565.63
2018-01-20T12:50:44.418Z,99564.75
2018-01-20T12:53:12.452Z,99560.72
2018-01-20T12:55:40.154Z,99554.70
2018-01-20T12:58:07.720Z,99556.66
2018-01-20T13:00:35.601Z,99546.17
2018-01-20T13:03:03.139Z,99542.52
2018-01-20T13:05:30.816Z,99535.06
2018-01-20T13:07:58.702Z,99533.48
2018-01-20T13:10:26.392Z,99527.86
2018-01-20T13:12:53.952Z,99529.30
2018-01-20T13:15:21.550Z,99524.23
2018-01-20T13:17:49.189Z,99513.48
2018-01-20T13:20:16.772Z,99508.74
2018-01-20T13:22:44.331Z,99510.31
2018-01-20T13:25:12.226Z,99511.69
2018-01-20T13:27:39.748Z,99505.61
2018-01-20T13:30:07.409Z,99508.58
2018-01-20T13:32:35.036Z,99512.61
2018-01-20T13:35:02.617Z,99507.73
2018-01-20T13:37:30.252Z,99503.38
2018-01-20T13:39:57.983Z,99500.08
2018-01-20T13:42:25.570Z,99500.81
2018-01-20T13:44:53.148Z,99499.61
2018-01-20T13:47:20.809Z,99498.97
2018-01-20T13:49:48.394Z,99500.89
2018-01-20T13:52:15.969Z,99497.44
2018-01-20T13:54:43.572Z,99492.89
2018-01-20T13:57:11.218Z,99492.53
2018-01-20T13:59:38.862Z,99483.18
2018-01-20T14:02:06.384Z,99484.44
2018-01-20T14:04:34.249Z,99488.23
2018-01-20T14:07:01.798Z,99478.19
2018-01-20T14:09:29.321Z,99484.05
2018-01-20T14:11:57.239Z,99483.91
2018-01-20T14:14:24.770Z,99479.89
2018-01-20T14:16:52.338Z,99473.98
2018-01-20T14:19:20.260Z,99479.23
2018-01-20T14:21:47.872Z,99478.25
2018-01-20T14:24:15.400Z,99465.91
2018-01-20T14:26:42.981Z,99461.94
2018-01-20T14:29:10.496Z,99463.31
2018-01-20T14:31:38.105Z,99464.48
2018-01-20T14:34:05.653Z,99458.70
2018-01-20T14:36:33.164Z,99450.63
2018-01-20T14:39:00.881Z,99445.23
2018-01-20T14:41:28.425Z,99446.19
2018-01-20T14:43:56.075Z,99444.23
2018-01-20T14:46:23.834Z,99435.29
2018-01-20T14:48:51.428Z,99439.25
2018-01-20T14:51:18.992Z,99437.37
2018-01-20T14:53:47.072Z,99432.14
2018-01-20T14:56:14.630Z,99431.89
2018-01-20T14:58:42.217Z,99430.02
2018-01-20T15:01:09.825Z,99434.37
2018-01-20T15:03:37.518Z,99429.02
2018-01-20T15:06:05.059Z,99422.39
2018-01-20T15:08:32.584Z,99420.69
2018-01-20T15:11:00.431Z,99424.90
2018-01-20T15:13:28.036Z,99432.23
2018-01-20T15:15:55.629Z,99423.89
2018-01-20T15:18:23.217Z,99425.20
2018-01-20T15:20:51.322Z,99428.60
2018-01-20T15:23:18.897Z,99417.73
2018-01-20T15:25:46.408Z,99415.11
2018-01-20T15:28:13.916Z,99415.75
2018-01-20T15:30:41.614Z,99420.19
2018-01-20T15:33:09.221Z,99420.55
2018-01-20T15:35:36.805Z,99417.25
2018-01-20T15:38:04.515Z,99417.00
2018-01-20T15:40:32.221Z,99422.50
2018-01-20T15:42:59.764Z,99409.81
2018-01-20T15:45:27.298Z,99410.23
2018-01-20T15:47:54.816Z,99418.41
2018-01-20T15:50:22.513Z,99410.12
2018-01-20T15:52:50.229Z,99414.59
2018-01-20T15:55:17.834Z,99412.13
2018-01-20T15:57:45.413Z,99412.88
2018-01-20T16:00:12.970Z,99413.63
2018-01-20T16:02:40.638Z,99414.80
2018-01-20T16:05:08.383Z,99415.69
2018-01-20T16:07:35.978Z,99421.86
2018-01-20T16:10:03.708Z,99424.11
2018-01-20T16:12:31.323Z,99424.81
2018-01-20T16:14:58.852Z,99420.74
2018-01-20T16:17:26.469Z,99420.21
2018-01-20T16:19:54.038Z,99424.64
2018-01-20T16:22:21.671Z,99421.50
2018-01-20T16:24:49.539Z,99430.58
2018-01-20T16:27:17.130Z,99436.47
2018-01-20T16:29:44.748Z,99431.00
2018-01-20T16:32:12.393Z,99432.62
2018-01-20T16:34:39.951Z,99441.61
2018-01-20T16:37:07.468Z,99437.06
2018-01-20T16:39:35.345Z,99440.32
2018-01-20T16:42:02.880Z,99436.16
2018-01-20T16:44:30.447Z,99435.66
2018-01-20T16:46:58.234Z,99440.09
2018-01-20T16:49:25.967Z,99445.89
2018-01-20T16:51:53.584Z,99435.89
2018-01-20T16:54:21.382Z,99442.70
2018-01-20T16:56:48.953Z,99438.78
2018-01-20T16:59:16.824Z,99441.89
2018-01-20T17:01:44.359Z,99446.76
2018-01-20T17:04:11.911Z,99444.41
2018-01-20T17:06:39.442Z,99439.03
2018-01-20T17:09:06.961Z,99434.40
2018-01-20T17:11:34.542Z,99431.41
2018-01-20T17:14:02.055Z,99436.16
2018-01-20T17:16:29.837Z,99438.53
2018-01-20T17:18:57.914Z,99446.71
2018-01-20T17:21:25.453Z,99447.63
2018-01-20T17:23:53.036Z,99442.73
2018-01-20T17:26:20.574Z,99447.73
2018-01-20T17:28:48.256Z,99449.79
2018-01-20T17:31:15.832Z,99443.80
2018-01-20T17:33:43.740Z,99448.15
2018-01-20T17:36:11.638Z,99445.66
2018-01-20T17:38:39.155Z,99445.52
2018-01-20T17:41:06.714Z,99445.41
2018-01-20T17:43:34.606Z,99450.64
2018-01-20T17:46:02.149Z,99454.05
2018-01-20T17:48:29.683Z,99456.00
2018-01-20T17:50:57.688Z,99455.22
2018-01-20T17:53:25.271Z,99457.48
2018-01-20T17:55:52.857Z,99460.97
2018-01-20T17:58:20.453Z,99462.30
2018-01-20T18:00:47.996Z,99455.90
2018-01-20T18:03:15.532Z,99453.98
2018-01-20T18:05:43.080Z,99453.78
2018-01-20T18:08:10.907Z,99463.74
2018-01-20T18:10:38.596Z,99455.78
2018-01-20T18:13:06.151Z,99456.69
2018-01-20T18:15:33.745Z,99456.30
2018-01-20T18:18:01.302Z,99457.20
2018-01-20T18:20:28.893Z,99463.22
2018-01-20T18:22:56.453Z,99468.34
2018-01-20T18:25:24.070Z,99462.96
2018-01-20T18:27:51.672Z,99461.02
2018-01-20T18:30:19.224Z,99456.97
2018-01-20T18:32:46.863Z,99458.00
2018-01-20T18:35:14.413Z,99456.30
2018-01-20T18:37:42.054Z,99451.08
2018-01-20T18:40:09.609Z,99453.81
2018-01-20T18:42:37.214Z,99464.80
2018-01-20T18:45:04.795Z,99466.12
2018-01-20T18:47:32.351Z,99468.33
2018-01-20T18:49:59.919Z,99471.34
2018-01-20T18:52:27.810Z,99479.20
2018-01-20T18:54:55.471Z,99483.27
2018-01-20T18:57:22.997Z,99488.89
2018-01-20T18:59:50.573Z,99484.10
2018-01-20T19:02:18.134Z,99489.11
2018-01-20T19:04:45.693Z,99487.93
2018-01-20T19:07:13.306Z,99493.69
2018-01-20T19:09:40.865Z,99499.28
2018-01-20T19:12:08.392Z,99504.98
2018-01-20T19:14:35.935Z,99494.25
2018-01-20T19:17:03.528Z,99500.69
2018-01-20T19:19:31.204Z,99500.62
2018-01-20T19:21:58.716Z,99500.09
2018-01-20T19:24:26.292Z,99502.30
2018-01-20T19:26:53.822Z,99506.37
2018-01-20T19:29:21.387Z,99504.93
2018-01-20T19:31:48.981Z,99519.70
2018-01-20T19:34:16.537Z,99519.28
2018-01-20T19:36:44.139Z,99523.99
2018-01-20T19:39:11.808Z,99522.59
2018-01-20T19:41:39.334Z,99527.30
2018-01-20T19:44:06.904Z,99531.00
2018-01-20T19:46:34.451Z,99528.92
2018-01-20T19:49:01.973Z,99527.73
2018-01-20T19:51:29.798Z,99542.05
2018-01-20T19:53:57.334Z,99540.35
2018-01-20T19:56:24.891Z,99542.75
2018-01-20T19:58:52.488Z,99546.05
2018-01-20T20:01:20.047Z,99549.03
2018-01-20T20:03:47.588Z,99545.72
2018-01-20T20:06:15.198Z,99555.61
2018-01-20T20:08:42.852Z,99557.29
2018-01-20T20:11:10.376Z,99557.42
2018-01-20T20:13:37.923Z,99557.16
2018-01-20T20:16:05.535Z,99561.78
2018-01-20T20:18:33.085Z,99566.00
2018-01-20T20:21:00.882Z,99564.91
2018-01-20T20:23:28.446Z,99564.39
2018-01-20T20:25:55.982Z,99574.85
2018-01-20T20:28:23.599Z,99573.94
2018-01-20T20:30:51.275Z,99586.84
2018-01-20T20:33:18.863Z,99585.83
2018-01-20T20:35:46.462Z,99579.48
2018-01-20T20:38:14.009Z,99587.08
2018-01-20T20:40:41.617Z,99580.66
2018-01-20T20:43:09.229Z,99584.39
2018-01-20T20:45:36.835Z,99578.41
2018-01-20T20:48:04.353Z,99572.63
2018-01-20T20:50:31.891Z,99574.72
2018-01-20T20:52:59.460Z,99576.56
2018-01-20T20:55:27.054Z,99583.37
2018-01-20T20:57:54.659Z,99586.12
2018-01-20T21:00:22.274Z,99580.48
2018-01-20T21:02:49.887Z,99587.56
2018-01-20T21:05:17.436Z,99592.93
2018-01-20T21:07:45.013Z,99600.10
2018-01-20T21:10:12.597Z,99601.02
2018-01-20T21:12:40.223Z,99607.19
2018-01-20T21:15:07.893Z,99612.15
2018-01-20T21:17:35.462Z,99611.62
2018-01-20T21:20:03.027Z,99617.00
2018-01-20T21:22:30.628Z,99626.55
2018-01-20T21:24:58.218Z,99623.67
2018-01-20T21:27:25.742Z,99626.56
2018-01-20T21:29:53.338Z,99632.33
2018-01-20T21:32:21.115Z,99634.14
2018-01-20T21:34:48.806Z,99631.27
2018-01-20T21:37:16.344Z,99638.73
2018-01-20T21:39:43.916Z,99642.51
2018-01-20T21:42:11.471Z,99637.80
2018-01-20T21:44:39.050Z,99644.75
2018-01-20T21:47:06.637Z,99647.61
2018-01-20T21:49:34.229Z,99650.34
2018-01-20T21:52:01.834Z,99652.66
2018-01-20T21:54:29.450Z,99655.00
2018-01-20T21:56:56.980Z,99656.88
2018-01-20T21:59:24.542Z,99660.67
2018-01-20T22:01:52.121Z,99661.32
2018-01-20T22:04:19.661Z,99667.88
2018-01-20T22:06:47.593Z,99667.45
2018-01-20T22:09:15.192Z,99675.96
2018-01-20T22:11:42.733Z,99674.35
2018-01-20T22:14:10.286Z,99677.59
2018-01-20T22:16:37.849Z,99682.42
2018-01-20T22:19:05.442Z,99689.36
2018-01-20T22:21:33.005Z,99692.11
2018-01-20T22:24:00.632Z,99697.59
2018-01-20T22:26:28.171Z,99697.69
2018-01-20T22:28:56.067Z,99704.25
2018-01-20T22:31:23.642Z,99705.25
2018-01-20T22:33:51.210Z,99699.25
2018-01-20T22:36:19.148Z,99703.18
2018-01-20T22:38:46.708Z,99705.01
2018-01-20T22:41:14.243Z,99709.13
2018-01-20T22:43:42.682Z,99711.34
2018-01-20T22:46:10.211Z,99717.20
2018-01-20T22:48:37.770Z,99717.13
2018-01-20T22:51:05.316Z,99718.56
2018-01-20T22:53:32.945Z,99722.23
2018-01-20T22:56:00.502Z,99728.26
2018-01-20T22:58:28.376Z,99728.39
2018-01-20T23:00:56.000Z,99738.72
2018-01-20T23:03:23.567Z,99740.81
2018-01-20T23:05:51.092Z,99749.83
2018-01-20T23:08:18.712Z,99745.14
2018-01-20T23:10:46.309Z,99752.87
2018-01-20T23:13:13.890Z,99742.53
2018-01-20T23:15:41.411Z,99748.05
2018-01-20T23:18:08.964Z,99747.77
2018-01-20T23:20:36.588Z,99757.97
2018-01-20T23:23:04.118Z,99757.70
2018-01-20T23:25:32.057Z,99761.61
2018-01-20T23:27:59.613Z,99764.22
2018-01-20T23:30:27.186Z,99774.02
2018-01-20T23:32:54.768Z,99776.66
2018-01-20T23:35:22.300Z,99783.06
2018-01-20T23:37:49.852Z,99787.37
2018-01-20T23:40:17.400Z,99792.22
2018-01-20T23:42:44.982Z,99787.77
2018-01-20T23:45:12.541Z,99803.41
2018-01-20T23:47:40.403Z,99795.69
2018-01-20T23:50:07.956Z,99793.81
2018-01-20T23:52:35.737Z,99805.16
2018-01-20T23:55:03.315Z,99812.52
2018-01-20T23:57:30.940Z,99816.17
2018-01-20T23:59:58.525Z,99816.75
